logo
Search for airport 
image banner adimage banner adimage banner ad
image banner ad

LOKK - Hallegg Klagenfurt Schloss

Located in District Klagenfurt Stadt, Austria

ICAO - , IATA -

Data provided by Airmate  

General information

Coordinates: N46°38'52" E14°14'42"
Elevation is 1493 feet MSL.
 
View others Airports in Carinthia

Operational data

Special qualification required
Current time UTC:
Current local time:
Weather at : LOWK - Klagenfurt ( 7 km )
METAR: LOWK 251820Z AUTO 26003KT 220V290 9999 FEW080 17/11 Q1017 NOSIG
TAF: TAF LOWK 251715Z 2518/2618 VRB03KT 9999 FEW050 TX20/2614Z TN11/2603Z PROB30 2602/2605 4000 BR PROB30 TEMPO 2606/2610 -SHRA
View NOTAMs / SUP AIP / TFR affecting this airport [VIEW]
Communications frequencies: [VIEW]

Runways:

Airport contact information

Address: District Klagenfurt Stadt Austria

Satellite view of LOKK